sensor_id;sensor_type;location;lat;lon;timestamp;P1;durP1;ratioP1;P2;durP2;ratioP2
5787;SDS011;2920;48.158;12.254;2023-11-19T00:02:16;3.67;;;2.10;;
5787;SDS011;2920;48.158;12.254;2023-11-19T00:04:41;2.13;;;1.70;;
5787;SDS011;2920;48.158;12.254;2023-11-19T00:07:07;2.20;;;1.70;;
5787;SDS011;2920;48.158;12.254;2023-11-19T00:09:36;1.98;;;1.52;;
5787;SDS011;2920;48.158;12.254;2023-11-19T00:12:02;1.90;;;1.63;;
5787;SDS011;2920;48.158;12.254;2023-11-19T00:14:31;2.80;;;2.00;;
5787;SDS011;2920;48.158;12.254;2023-11-19T00:16:56;2.88;;;1.83;;
5787;SDS011;2920;48.158;12.254;2023-11-19T00:19:23;2.83;;;1.83;;
5787;SDS011;2920;48.158;12.254;2023-11-19T00:21:48;4.03;;;1.90;;
5787;SDS011;2920;48.158;12.254;2023-11-19T00:24:13;5.50;;;1.88;;
5787;SDS011;2920;48.158;12.254;2023-11-19T00:26:41;2.30;;;1.48;;
5787;SDS011;2920;48.158;12.254;2023-11-19T00:29:07;1.73;;;1.63;;
5787;SDS011;2920;48.158;12.254;2023-11-19T00:31:32;2.20;;;1.65;;
5787;SDS011;2920;48.158;12.254;2023-11-19T00:33:57;2.67;;;1.80;;
5787;SDS011;2920;48.158;12.254;2023-11-19T00:36:23;2.30;;;1.73;;
5787;SDS011;2920;48.158;12.254;2023-11-19T00:38:49;1.75;;;1.60;;
5787;SDS011;2920;48.158;12.254;2023-11-19T00:41:14;2.47;;;1.60;;
5787;SDS011;2920;48.158;12.254;2023-11-19T00:43:41;1.55;;;1.35;;
5787;SDS011;2920;48.158;12.254;2023-11-19T00:46:07;1.83;;;1.27;;
5787;SDS011;2920;48.158;12.254;2023-11-19T00:48:32;1.98;;;1.48;;
5787;SDS011;2920;48.158;12.254;2023-11-19T00:50:57;2.45;;;1.50;;
5787;SDS011;2920;48.158;12.254;2023-11-19T00:53:23;1.80;;;1.50;;
5787;SDS011;2920;48.158;12.254;2023-11-19T00:55:48;1.20;;;1.10;;
5787;SDS011;2920;48.158;12.254;2023-11-19T00:58:13;2.22;;;1.65;;
5787;SDS011;2920;48.158;12.254;2023-11-19T01:00:39;1.40;;;1.15;;
5787;SDS011;2920;48.158;12.254;2023-11-19T01:03:04;2.13;;;1.45;;
5787;SDS011;2920;48.158;12.254;2023-11-19T01:05:32;1.98;;;1.45;;
5787;SDS011;2920;48.158;12.254;2023-11-19T01:07:57;1.80;;;1.55;;
5787;SDS011;2920;48.158;12.254;2023-11-19T01:10:22;3.35;;;1.63;;
5787;SDS011;2920;48.158;12.254;2023-11-19T01:12:48;2.08;;;1.58;;
5787;SDS011;2920;48.158;12.254;2023-11-19T01:15:13;1.80;;;1.40;;
5787;SDS011;2920;48.158;12.254;2023-11-19T01:17:38;2.17;;;1.17;;
5787;SDS011;2920;48.158;12.254;2023-11-19T01:20:04;2.05;;;1.50;;
5787;SDS011;2920;48.158;12.254;2023-11-19T01:22:31;2.53;;;1.60;;
5787;SDS011;2920;48.158;12.254;2023-11-19T01:24:57;1.75;;;1.52;;
5787;SDS011;2920;48.158;12.254;2023-11-19T01:27:23;2.13;;;1.70;;
5787;SDS011;2920;48.158;12.254;2023-11-19T01:29:48;2.67;;;1.42;;
5787;SDS011;2920;48.158;12.254;2023-11-19T01:32:14;2.13;;;1.92;;
5787;SDS011;2920;48.158;12.254;2023-11-19T01:34:40;2.30;;;1.75;;
5787;SDS011;2920;48.158;12.254;2023-11-19T01:37:05;2.08;;;1.45;;
5787;SDS011;2920;48.158;12.254;2023-11-19T01:39:31;1.27;;;1.10;;
5787;SDS011;2920;48.158;12.254;2023-11-19T01:41:56;2.33;;;2.00;;
5787;SDS011;2920;48.158;12.254;2023-11-19T01:44:21;1.80;;;1.60;;
5787;SDS011;2920;48.158;12.254;2023-11-19T01:46:47;2.13;;;1.65;;
5787;SDS011;2920;48.158;12.254;2023-11-19T01:49:14;1.75;;;1.40;;
5787;SDS011;2920;48.158;12.254;2023-11-19T01:51:40;1.67;;;1.35;;
5787;SDS011;2920;48.158;12.254;2023-11-19T01:54:06;2.65;;;1.40;;
5787;SDS011;2920;48.158;12.254;2023-11-19T01:56:32;2.10;;;1.40;;
5787;SDS011;2920;48.158;12.254;2023-11-19T01:58:58;2.83;;;1.80;;
5787;SDS011;2920;48.158;12.254;2023-11-19T02:01:23;1.98;;;1.35;;
5787;SDS011;2920;48.158;12.254;2023-11-19T02:03:49;2.00;;;1.67;;
5787;SDS011;2920;48.158;12.254;2023-11-19T02:06:14;2.22;;;1.60;;
5787;SDS011;2920;48.158;12.254;2023-11-19T02:08:40;1.92;;;1.60;;
5787;SDS011;2920;48.158;12.254;2023-11-19T02:11:05;2.42;;;1.55;;
5787;SDS011;2920;48.158;12.254;2023-11-19T02:13:32;1.90;;;1.50;;
5787;SDS011;2920;48.158;12.254;2023-11-19T02:15:57;2.53;;;1.95;;
5787;SDS011;2920;48.158;12.254;2023-11-19T02:18:24;1.40;;;1.08;;
5787;SDS011;2920;48.158;12.254;2023-11-19T02:20:53;1.60;;;1.00;;
5787;SDS011;2920;48.158;12.254;2023-11-19T02:23:19;1.48;;;1.30;;
5787;SDS011;2920;48.158;12.254;2023-11-19T02:28:40;1.35;;;1.10;;
5787;SDS011;2920;48.158;12.254;2023-11-19T02:31:07;1.40;;;1.20;;
5787;SDS011;2920;48.158;12.254;2023-11-19T02:33:36;1.50;;;0.90;;
5787;SDS011;2920;48.158;12.254;2023-11-19T02:36:03;1.65;;;1.27;;
5787;SDS011;2920;48.158;12.254;2023-11-19T02:38:29;1.63;;;1.27;;
5787;SDS011;2920;48.158;12.254;2023-11-19T02:40:55;1.30;;;1.15;;
5787;SDS011;2920;48.158;12.254;2023-11-19T02:43:21;2.28;;;1.42;;
5787;SDS011;2920;48.158;12.254;2023-11-19T02:45:46;1.48;;;1.27;;
5787;SDS011;2920;48.158;12.254;2023-11-19T02:48:12;2.42;;;1.77;;
5787;SDS011;2920;48.158;12.254;2023-11-19T02:50:39;2.03;;;1.55;;
5787;SDS011;2920;48.158;12.254;2023-11-19T02:53:04;2.22;;;1.55;;
5787;SDS011;2920;48.158;12.254;2023-11-19T02:55:31;1.95;;;1.50;;
5787;SDS011;2920;48.158;12.254;2023-11-19T02:58:02;3.42;;;1.88;;
5787;SDS011;2920;48.158;12.254;2023-11-19T03:00:33;4.15;;;2.40;;
5787;SDS011;2920;48.158;12.254;2023-11-19T03:03:02;2.95;;;2.20;;
5787;SDS011;2920;48.158;12.254;2023-11-19T03:05:42;2.38;;;1.85;;
5787;SDS011;2920;48.158;12.254;2023-11-19T03:08:09;2.55;;;2.08;;
5787;SDS011;2920;48.158;12.254;2023-11-19T03:10:34;2.75;;;2.13;;
5787;SDS011;2920;48.158;12.254;2023-11-19T03:13:00;2.72;;;2.10;;
5787;SDS011;2920;48.158;12.254;2023-11-19T03:15:27;2.75;;;2.35;;
5787;SDS011;2920;48.158;12.254;2023-11-19T03:17:52;3.33;;;2.25;;
5787;SDS011;2920;48.158;12.254;2023-11-19T03:20:17;3.55;;;2.75;;
5787;SDS011;2920;48.158;12.254;2023-11-19T03:22:43;4.20;;;3.15;;
5787;SDS011;2920;48.158;12.254;2023-11-19T03:25:09;4.25;;;3.20;;
5787;SDS011;2920;48.158;12.254;2023-11-19T03:27:35;3.28;;;2.58;;
5787;SDS011;2920;48.158;12.254;2023-11-19T03:30:01;3.20;;;2.47;;
5787;SDS011;2920;48.158;12.254;2023-11-19T03:32:36;4.30;;;2.70;;
5787;SDS011;2920;48.158;12.254;2023-11-19T03:35:01;3.80;;;2.28;;
5787;SDS011;2920;48.158;12.254;2023-11-19T03:37:29;3.03;;;2.30;;
5787;SDS011;2920;48.158;12.254;2023-11-19T03:39:54;3.97;;;3.05;;
5787;SDS011;2920;48.158;12.254;2023-11-19T03:42:22;5.55;;;3.95;;
5787;SDS011;2920;48.158;12.254;2023-11-19T03:44:47;4.53;;;2.70;;
5787;SDS011;2920;48.158;12.254;2023-11-19T03:47:14;4.57;;;2.85;;
5787;SDS011;2920;48.158;12.254;2023-11-19T03:49:39;3.75;;;2.88;;
5787;SDS011;2920;48.158;12.254;2023-11-19T03:52:05;3.03;;;2.35;;
5787;SDS011;2920;48.158;12.254;2023-11-19T03:54:30;3.58;;;2.65;;
5787;SDS011;2920;48.158;12.254;2023-11-19T03:56:55;2.78;;;2.25;;
5787;SDS011;2920;48.158;12.254;2023-11-19T03:59:21;3.78;;;2.72;;
5787;SDS011;2920;48.158;12.254;2023-11-19T04:01:46;5.32;;;2.83;;
5787;SDS011;2920;48.158;12.254;2023-11-19T04:04:11;3.80;;;2.60;;
5787;SDS011;2920;48.158;12.254;2023-11-19T04:06:37;4.65;;;3.15;;
5787;SDS011;2920;48.158;12.254;2023-11-19T04:09:02;4.80;;;3.00;;
5787;SDS011;2920;48.158;12.254;2023-11-19T04:11:28;3.63;;;2.80;;
5787;SDS011;2920;48.158;12.254;2023-11-19T04:13:53;3.20;;;2.47;;
5787;SDS011;2920;48.158;12.254;2023-11-19T04:16:18;3.80;;;2.92;;
5787;SDS011;2920;48.158;12.254;2023-11-19T04:18:43;4.63;;;3.17;;
5787;SDS011;2920;48.158;12.254;2023-11-19T04:21:09;4.28;;;3.03;;
5787;SDS011;2920;48.158;12.254;2023-11-19T04:23:34;4.97;;;2.90;;
5787;SDS011;2920;48.158;12.254;2023-11-19T04:26:03;4.38;;;3.10;;
5787;SDS011;2920;48.158;12.254;2023-11-19T04:28:29;3.70;;;2.70;;
5787;SDS011;2920;48.158;12.254;2023-11-19T04:30:55;7.45;;;3.30;;
5787;SDS011;2920;48.158;12.254;2023-11-19T04:33:21;4.40;;;2.97;;
5787;SDS011;2920;48.158;12.254;2023-11-19T04:35:46;5.07;;;3.47;;
5787;SDS011;2920;48.158;12.254;2023-11-19T04:38:11;4.72;;;2.97;;
5787;SDS011;2920;48.158;12.254;2023-11-19T04:40:37;3.83;;;2.67;;
5787;SDS011;2920;48.158;12.254;2023-11-19T04:43:02;4.78;;;3.03;;
5787;SDS011;2920;48.158;12.254;2023-11-19T04:45:27;4.00;;;2.90;;
5787;SDS011;2920;48.158;12.254;2023-11-19T04:47:52;5.22;;;3.20;;
5787;SDS011;2920;48.158;12.254;2023-11-19T04:50:18;3.17;;;2.55;;
5787;SDS011;2920;48.158;12.254;2023-11-19T04:52:43;3.50;;;2.53;;
5787;SDS011;2920;48.158;12.254;2023-11-19T04:55:12;3.65;;;2.80;;
5787;SDS011;2920;48.158;12.254;2023-11-19T04:57:39;3.63;;;2.65;;
5787;SDS011;2920;48.158;12.254;2023-11-19T05:00:04;4.95;;;2.92;;
5787;SDS011;2920;48.158;12.254;2023-11-19T05:02:31;3.90;;;2.70;;
5787;SDS011;2920;48.158;12.254;2023-11-19T05:04:56;5.45;;;3.42;;
5787;SDS011;2920;48.158;12.254;2023-11-19T05:07:22;4.78;;;2.75;;
5787;SDS011;2920;48.158;12.254;2023-11-19T05:09:47;4.70;;;3.28;;
5787;SDS011;2920;48.158;12.254;2023-11-19T05:12:12;5.22;;;2.90;;
5787;SDS011;2920;48.158;12.254;2023-11-19T05:14:38;5.50;;;3.53;;
5787;SDS011;2920;48.158;12.254;2023-11-19T05:17:03;5.68;;;2.72;;
5787;SDS011;2920;48.158;12.254;2023-11-19T05:19:29;5.00;;;3.30;;
5787;SDS011;2920;48.158;12.254;2023-11-19T05:21:54;3.97;;;2.75;;
5787;SDS011;2920;48.158;12.254;2023-11-19T05:24:19;4.28;;;2.80;;
5787;SDS011;2920;48.158;12.254;2023-11-19T05:26:45;5.05;;;3.28;;
5787;SDS011;2920;48.158;12.254;2023-11-19T05:29:10;4.47;;;3.13;;
5787;SDS011;2920;48.158;12.254;2023-11-19T05:31:35;5.07;;;3.08;;
5787;SDS011;2920;48.158;12.254;2023-11-19T05:34:00;6.55;;;3.97;;
5787;SDS011;2920;48.158;12.254;2023-11-19T05:36:26;5.75;;;3.75;;
5787;SDS011;2920;48.158;12.254;2023-11-19T05:38:52;6.85;;;2.92;;
5787;SDS011;2920;48.158;12.254;2023-11-19T05:41:18;4.88;;;3.38;;
5787;SDS011;2920;48.158;12.254;2023-11-19T05:43:43;4.85;;;3.47;;
5787;SDS011;2920;48.158;12.254;2023-11-19T05:46:08;4.20;;;3.03;;
5787;SDS011;2920;48.158;12.254;2023-11-19T05:48:33;5.28;;;3.50;;
5787;SDS011;2920;48.158;12.254;2023-11-19T05:50:59;4.95;;;3.28;;
5787;SDS011;2920;48.158;12.254;2023-11-19T05:53:25;8.30;;;4.85;;
5787;SDS011;2920;48.158;12.254;2023-11-19T05:55:50;6.78;;;4.38;;
5787;SDS011;2920;48.158;12.254;2023-11-19T05:58:24;5.88;;;4.20;;
5787;SDS011;2920;48.158;12.254;2023-11-19T06:00:51;5.68;;;3.75;;
5787;SDS011;2920;48.158;12.254;2023-11-19T06:03:16;5.25;;;3.80;;
5787;SDS011;2920;48.158;12.254;2023-11-19T06:05:44;5.85;;;3.95;;
5787;SDS011;2920;48.158;12.254;2023-11-19T06:08:10;6.63;;;4.05;;
5787;SDS011;2920;48.158;12.254;2023-11-19T06:10:36;5.93;;;4.20;;
5787;SDS011;2920;48.158;12.254;2023-11-19T06:15:31;5.80;;;3.70;;
5787;SDS011;2920;48.158;12.254;2023-11-19T06:17:58;5.68;;;3.78;;
5787;SDS011;2920;48.158;12.254;2023-11-19T06:20:25;5.18;;;3.80;;
5787;SDS011;2920;48.158;12.254;2023-11-19T06:22:52;12.48;;;9.13;;
5787;SDS011;2920;48.158;12.254;2023-11-19T06:25:18;8.15;;;5.47;;
5787;SDS011;2920;48.158;12.254;2023-11-19T06:27:43;26.00;;;14.18;;
5787;SDS011;2920;48.158;12.254;2023-11-19T06:30:09;7.38;;;4.72;;
5787;SDS011;2920;48.158;12.254;2023-11-19T06:32:34;9.88;;;6.55;;
5787;SDS011;2920;48.158;12.254;2023-11-19T06:35:00;6.68;;;4.55;;
5787;SDS011;2920;48.158;12.254;2023-11-19T06:37:25;6.30;;;3.95;;
5787;SDS011;2920;48.158;12.254;2023-11-19T06:39:52;6.32;;;4.53;;
5787;SDS011;2920;48.158;12.254;2023-11-19T06:42:17;6.43;;;4.88;;
5787;SDS011;2920;48.158;12.254;2023-11-19T06:44:42;6.93;;;5.00;;
5787;SDS011;2920;48.158;12.254;2023-11-19T06:47:08;7.43;;;5.10;;
5787;SDS011;2920;48.158;12.254;2023-11-19T06:49:33;7.85;;;4.97;;
5787;SDS011;2920;48.158;12.254;2023-11-19T06:51:58;6.40;;;4.55;;
5787;SDS011;2920;48.158;12.254;2023-11-19T06:54:24;6.25;;;4.50;;
5787;SDS011;2920;48.158;12.254;2023-11-19T06:56:49;6.70;;;4.38;;
5787;SDS011;2920;48.158;12.254;2023-11-19T06:59:14;7.18;;;4.45;;
5787;SDS011;2920;48.158;12.254;2023-11-19T07:01:40;6.38;;;4.50;;
5787;SDS011;2920;48.158;12.254;2023-11-19T07:04:07;6.38;;;4.53;;
5787;SDS011;2920;48.158;12.254;2023-11-19T07:06:34;7.65;;;4.80;;
5787;SDS011;2920;48.158;12.254;2023-11-19T07:09:00;6.45;;;4.65;;
5787;SDS011;2920;48.158;12.254;2023-11-19T07:11:43;7.18;;;4.75;;
5787;SDS011;2920;48.158;12.254;2023-11-19T07:14:11;5.97;;;4.40;;
5787;SDS011;2920;48.158;12.254;2023-11-19T07:16:37;6.50;;;4.35;;
5787;SDS011;2920;48.158;12.254;2023-11-19T07:19:03;7.38;;;4.32;;
5787;SDS011;2920;48.158;12.254;2023-11-19T07:21:30;8.70;;;5.95;;
5787;SDS011;2920;48.158;12.254;2023-11-19T07:23:55;8.30;;;5.97;;
5787;SDS011;2920;48.158;12.254;2023-11-19T07:26:21;7.40;;;5.50;;
5787;SDS011;2920;48.158;12.254;2023-11-19T07:28:47;7.20;;;4.95;;
5787;SDS011;2920;48.158;12.254;2023-11-19T07:31:12;15.40;;;9.10;;
5787;SDS011;2920;48.158;12.254;2023-11-19T07:33:39;17.63;;;10.05;;
5787;SDS011;2920;48.158;12.254;2023-11-19T07:36:04;10.73;;;6.35;;
5787;SDS011;2920;48.158;12.254;2023-11-19T07:38:30;22.02;;;12.32;;
5787;SDS011;2920;48.158;12.254;2023-11-19T07:40:55;23.98;;;12.25;;
5787;SDS011;2920;48.158;12.254;2023-11-19T07:43:21;8.90;;;6.03;;
5787;SDS011;2920;48.158;12.254;2023-11-19T07:45:46;17.25;;;8.57;;
5787;SDS011;2920;48.158;12.254;2023-11-19T07:48:11;14.82;;;8.52;;
5787;SDS011;2920;48.158;12.254;2023-11-19T07:50:38;8.10;;;5.47;;
5787;SDS011;2920;48.158;12.254;2023-11-19T07:53:05;7.93;;;5.35;;
5787;SDS011;2920;48.158;12.254;2023-11-19T07:55:31;7.90;;;4.93;;
5787;SDS011;2920;48.158;12.254;2023-11-19T07:57:56;7.95;;;5.07;;
5787;SDS011;2920;48.158;12.254;2023-11-19T08:00:21;8.23;;;5.70;;
5787;SDS011;2920;48.158;12.254;2023-11-19T08:02:47;10.27;;;5.65;;
5787;SDS011;2920;48.158;12.254;2023-11-19T08:05:12;7.93;;;5.07;;
5787;SDS011;2920;48.158;12.254;2023-11-19T08:07:38;6.72;;;4.72;;
5787;SDS011;2920;48.158;12.254;2023-11-19T08:10:04;7.88;;;5.10;;
5787;SDS011;2920;48.158;12.254;2023-11-19T08:12:30;6.25;;;4.30;;
5787;SDS011;2920;48.158;12.254;2023-11-19T08:14:56;14.70;;;7.68;;
5787;SDS011;2920;48.158;12.254;2023-11-19T08:17:23;23.88;;;9.45;;
5787;SDS011;2920;48.158;12.254;2023-11-19T08:19:48;24.50;;;12.18;;
5787;SDS011;2920;48.158;12.254;2023-11-19T08:22:14;10.70;;;6.30;;
5787;SDS011;2920;48.158;12.254;2023-11-19T08:24:39;6.90;;;4.93;;
5787;SDS011;2920;48.158;12.254;2023-11-19T08:27:04;9.55;;;6.93;;
5787;SDS011;2920;48.158;12.254;2023-11-19T08:29:30;7.38;;;4.32;;
5787;SDS011;2920;48.158;12.254;2023-11-19T08:31:55;6.40;;;5.05;;
5787;SDS011;2920;48.158;12.254;2023-11-19T08:34:20;8.25;;;4.65;;
5787;SDS011;2920;48.158;12.254;2023-11-19T08:36:46;7.80;;;4.80;;
5787;SDS011;2920;48.158;12.254;2023-11-19T08:39:11;7.00;;;4.78;;
5787;SDS011;2920;48.158;12.254;2023-11-19T08:41:36;6.40;;;4.28;;
5787;SDS011;2920;48.158;12.254;2023-11-19T08:44:03;5.60;;;3.90;;
5787;SDS011;2920;48.158;12.254;2023-11-19T08:46:28;3.70;;;2.20;;
5787;SDS011;2920;48.158;12.254;2023-11-19T08:48:54;1.95;;;1.52;;
5787;SDS011;2920;48.158;12.254;2023-11-19T08:51:22;1.92;;;1.00;;
5787;SDS011;2920;48.158;12.254;2023-11-19T08:53:48;2.90;;;1.23;;
5787;SDS011;2920;48.158;12.254;2023-11-19T08:56:13;4.30;;;0.80;;
5787;SDS011;2920;48.158;12.254;2023-11-19T08:58:39;0.65;;;0.50;;
5787;SDS011;2920;48.158;12.254;2023-11-19T09:01:04;0.50;;;0.50;;
5787;SDS011;2920;48.158;12.254;2023-11-19T09:03:31;0.43;;;0.40;;
5787;SDS011;2920;48.158;12.254;2023-11-19T09:05:56;0.80;;;0.45;;
5787;SDS011;2920;48.158;12.254;2023-11-19T09:08:22;0.85;;;0.75;;
5787;SDS011;2920;48.158;12.254;2023-11-19T09:10:47;0.30;;;0.30;;
5787;SDS011;2920;48.158;12.254;2023-11-19T09:13:12;0.40;;;0.40;;
5787;SDS011;2920;48.158;12.254;2023-11-19T09:15:38;0.82;;;0.75;;
5787;SDS011;2920;48.158;12.254;2023-11-19T09:18:03;0.20;;;0.20;;
5787;SDS011;2920;48.158;12.254;2023-11-19T09:20:29;1.33;;;0.93;;
5787;SDS011;2920;48.158;12.254;2023-11-19T09:23:02;0.50;;;0.50;;
5787;SDS011;2920;48.158;12.254;2023-11-19T09:25:28;0.35;;;0.35;;
5787;SDS011;2920;48.158;12.254;2023-11-19T09:27:53;0.30;;;0.13;;
5787;SDS011;2920;48.158;12.254;2023-11-19T09:30:19;0.60;;;0.60;;
5787;SDS011;2920;48.158;12.254;2023-11-19T09:32:44;0.85;;;0.35;;
5787;SDS011;2920;48.158;12.254;2023-11-19T09:35:09;0.30;;;0.30;;
5787;SDS011;2920;48.158;12.254;2023-11-19T09:37:38;1.52;;;0.30;;
5787;SDS011;2920;48.158;12.254;2023-11-19T09:40:04;0.30;;;0.30;;
5787;SDS011;2920;48.158;12.254;2023-11-19T09:42:31;0.30;;;0.30;;
5787;SDS011;2920;48.158;12.254;2023-11-19T09:45:08;0.35;;;0.35;;
5787;SDS011;2920;48.158;12.254;2023-11-19T09:47:38;0.38;;;0.38;;
5787;SDS011;2920;48.158;12.254;2023-11-19T09:50:04;0.10;;;0.10;;
5787;SDS011;2920;48.158;12.254;2023-11-19T09:52:30;2.20;;;1.80;;
5787;SDS011;2920;48.158;12.254;2023-11-19T09:54:55;0.63;;;0.40;;
5787;SDS011;2920;48.158;12.254;2023-11-19T09:57:21;1.38;;;0.50;;
5787;SDS011;2920;48.158;12.254;2023-11-19T09:59:47;0.47;;;0.47;;
5787;SDS011;2920;48.158;12.254;2023-11-19T10:02:12;1.05;;;0.32;;
5787;SDS011;2920;48.158;12.254;2023-11-19T10:04:38;4.25;;;0.80;;
5787;SDS011;2920;48.158;12.254;2023-11-19T10:07:04;0.47;;;0.43;;
5787;SDS011;2920;48.158;12.254;2023-11-19T10:09:30;0.60;;;0.50;;
5787;SDS011;2920;48.158;12.254;2023-11-19T10:11:55;0.50;;;0.50;;
5787;SDS011;2920;48.158;12.254;2023-11-19T10:14:22;0.52;;;0.47;;
5787;SDS011;2920;48.158;12.254;2023-11-19T10:16:48;0.30;;;0.30;;
5787;SDS011;2920;48.158;12.254;2023-11-19T10:19:20;1.15;;;0.70;;
5787;SDS011;2920;48.158;12.254;2023-11-19T10:21:45;0.20;;;0.20;;
5787;SDS011;2920;48.158;12.254;2023-11-19T10:24:11;0.45;;;0.45;;
5787;SDS011;2920;48.158;12.254;2023-11-19T10:26:36;1.00;;;0.50;;
5787;SDS011;2920;48.158;12.254;2023-11-19T10:29:02;0.30;;;0.30;;
5787;SDS011;2920;48.158;12.254;2023-11-19T10:31:27;0.60;;;0.45;;
5787;SDS011;2920;48.158;12.254;2023-11-19T10:33:53;0.40;;;0.22;;
5787;SDS011;2920;48.158;12.254;2023-11-19T10:36:18;0.50;;;0.50;;
5787;SDS011;2920;48.158;12.254;2023-11-19T10:38:54;0.30;;;0.30;;
5787;SDS011;2920;48.158;12.254;2023-11-19T10:41:28;1.65;;;0.50;;
5787;SDS011;2920;48.158;12.254;2023-11-19T10:43:53;1.33;;;1.10;;
5787;SDS011;2920;48.158;12.254;2023-11-19T10:46:18;1.08;;;0.57;;
5787;SDS011;2920;48.158;12.254;2023-11-19T10:48:48;0.60;;;0.60;;
5787;SDS011;2920;48.158;12.254;2023-11-19T10:51:13;0.70;;;0.55;;
5787;SDS011;2920;48.158;12.254;2023-11-19T10:53:43;1.15;;;0.88;;
5787;SDS011;2920;48.158;12.254;2023-11-19T10:56:10;0.63;;;0.60;;
5787;SDS011;2920;48.158;12.254;2023-11-19T10:58:36;0.32;;;0.32;;
5787;SDS011;2920;48.158;12.254;2023-11-19T11:01:11;0.40;;;0.40;;
5787;SDS011;2920;48.158;12.254;2023-11-19T11:03:39;0.45;;;0.45;;
5787;SDS011;2920;48.158;12.254;2023-11-19T11:06:05;0.30;;;0.30;;
5787;SDS011;2920;48.158;12.254;2023-11-19T11:08:30;0.60;;;0.50;;
5787;SDS011;2920;48.158;12.254;2023-11-19T11:10:56;0.30;;;0.30;;
5787;SDS011;2920;48.158;12.254;2023-11-19T11:13:23;1.48;;;1.38;;
5787;SDS011;2920;48.158;12.254;2023-11-19T11:15:49;1.83;;;0.30;;
5787;SDS011;2920;48.158;12.254;2023-11-19T11:18:15;0.65;;;0.40;;
5787;SDS011;2920;48.158;12.254;2023-11-19T11:20:42;0.32;;;0.20;;
5787;SDS011;2920;48.158;12.254;2023-11-19T11:31:34;0.73;;;0.40;;
5787;SDS011;2920;48.158;12.254;2023-11-19T11:34:15;0.93;;;0.30;;
5787;SDS011;2920;48.158;12.254;2023-11-19T11:39:21;0.63;;;0.47;;
5787;SDS011;2920;48.158;12.254;2023-11-19T11:41:47;0.52;;;0.45;;
5787;SDS011;2920;48.158;12.254;2023-11-19T11:44:12;0.70;;;0.30;;
5787;SDS011;2920;48.158;12.254;2023-11-19T11:49:03;0.30;;;0.30;;
5787;SDS011;2920;48.158;12.254;2023-11-19T11:54:30;1.98;;;0.40;;
5787;SDS011;2920;48.158;12.254;2023-11-19T11:57:02;0.80;;;0.40;;
5787;SDS011;2920;48.158;12.254;2023-11-19T12:02:17;0.57;;;0.30;;
5787;SDS011;2920;48.158;12.254;2023-11-19T12:04:48;0.43;;;0.40;;
5787;SDS011;2920;48.158;12.254;2023-11-19T12:07:18;1.20;;;0.30;;
5787;SDS011;2920;48.158;12.254;2023-11-19T12:09:48;0.30;;;0.30;;
5787;SDS011;2920;48.158;12.254;2023-11-19T12:12:21;0.73;;;0.52;;
5787;SDS011;2920;48.158;12.254;2023-11-19T12:17:42;0.22;;;0.20;;
5787;SDS011;2920;48.158;12.254;2023-11-19T12:20:11;1.85;;;0.40;;
5787;SDS011;2920;48.158;12.254;2023-11-19T12:22:43;0.40;;;0.40;;
5787;SDS011;2920;48.158;12.254;2023-11-19T12:25:11;0.52;;;0.25;;
5787;SDS011;2920;48.158;12.254;2023-11-19T12:27:48;0.35;;;0.35;;
5787;SDS011;2920;48.158;12.254;2023-11-19T12:30:23;0.30;;;0.30;;
5787;SDS011;2920;48.158;12.254;2023-11-19T12:32:49;0.40;;;0.30;;
5787;SDS011;2920;48.158;12.254;2023-11-19T12:35:15;0.20;;;0.20;;
5787;SDS011;2920;48.158;12.254;2023-11-19T12:42:42;0.10;;;0.10;;
5787;SDS011;2920;48.158;12.254;2023-11-19T12:45:08;0.20;;;0.20;;
5787;SDS011;2920;48.158;12.254;2023-11-19T12:47:35;0.60;;;0.40;;
5787;SDS011;2920;48.158;12.254;2023-11-19T12:50:02;0.35;;;0.30;;
5787;SDS011;2920;48.158;12.254;2023-11-19T12:52:27;0.30;;;0.30;;
5787;SDS011;2920;48.158;12.254;2023-11-19T12:54:52;2.22;;;0.20;;
5787;SDS011;2920;48.158;12.254;2023-11-19T12:57:18;0.38;;;0.28;;
5787;SDS011;2920;48.158;12.254;2023-11-19T12:59:55;0.30;;;0.30;;
5787;SDS011;2920;48.158;12.254;2023-11-19T13:02:21;0.45;;;0.35;;
5787;SDS011;2920;48.158;12.254;2023-11-19T13:04:48;0.20;;;0.20;;
5787;SDS011;2920;48.158;12.254;2023-11-19T13:07:13;0.28;;;0.28;;
5787;SDS011;2920;48.158;12.254;2023-11-19T13:09:38;1.10;;;0.50;;
5787;SDS011;2920;48.158;12.254;2023-11-19T13:12:14;0.30;;;0.30;;
5787;SDS011;2920;48.158;12.254;2023-11-19T13:14:40;0.15;;;0.15;;
5787;SDS011;2920;48.158;12.254;2023-11-19T13:17:07;0.20;;;0.20;;
5787;SDS011;2920;48.158;12.254;2023-11-19T13:19:33;0.40;;;0.30;;
5787;SDS011;2920;48.158;12.254;2023-11-19T13:21:58;0.60;;;0.40;;
5787;SDS011;2920;48.158;12.254;2023-11-19T13:24:24;0.20;;;0.20;;
5787;SDS011;2920;48.158;12.254;2023-11-19T13:26:49;0.43;;;0.43;;
5787;SDS011;2920;48.158;12.254;2023-11-19T13:29:14;0.98;;;0.43;;
5787;SDS011;2920;48.158;12.254;2023-11-19T13:31:40;0.20;;;0.20;;
5787;SDS011;2920;48.158;12.254;2023-11-19T13:34:05;0.55;;;0.40;;
5787;SDS011;2920;48.158;12.254;2023-11-19T13:36:33;0.40;;;0.30;;
5787;SDS011;2920;48.158;12.254;2023-11-19T13:38:58;0.10;;;0.10;;
5787;SDS011;2920;48.158;12.254;2023-11-19T13:41:25;0.70;;;0.40;;
5787;SDS011;2920;48.158;12.254;2023-11-19T13:43:52;1.23;;;0.30;;
5787;SDS011;2920;48.158;12.254;2023-11-19T13:46:18;0.28;;;0.28;;
5787;SDS011;2920;48.158;12.254;2023-11-19T13:48:44;0.50;;;0.40;;
5787;SDS011;2920;48.158;12.254;2023-11-19T13:51:09;0.55;;;0.30;;
5787;SDS011;2920;48.158;12.254;2023-11-19T13:53:35;1.73;;;0.40;;
5787;SDS011;2920;48.158;12.254;2023-11-19T13:56:00;0.40;;;0.40;;
5787;SDS011;2920;48.158;12.254;2023-11-19T13:58:26;0.30;;;0.30;;
5787;SDS011;2920;48.158;12.254;2023-11-19T14:00:51;5.03;;;0.77;;
5787;SDS011;2920;48.158;12.254;2023-11-19T14:03:16;0.43;;;0.43;;
5787;SDS011;2920;48.158;12.254;2023-11-19T14:05:41;1.33;;;0.60;;
5787;SDS011;2920;48.158;12.254;2023-11-19T14:08:07;0.52;;;0.52;;
5787;SDS011;2920;48.158;12.254;2023-11-19T14:10:38;0.50;;;0.50;;
5787;SDS011;2920;48.158;12.254;2023-11-19T14:13:05;0.95;;;0.60;;
5787;SDS011;2920;48.158;12.254;2023-11-19T14:15:31;0.60;;;0.50;;
5787;SDS011;2920;48.158;12.254;2023-11-19T14:17:56;0.70;;;0.43;;
5787;SDS011;2920;48.158;12.254;2023-11-19T14:20:21;0.50;;;0.50;;
5787;SDS011;2920;48.158;12.254;2023-11-19T14:22:47;0.65;;;0.50;;
5787;SDS011;2920;48.158;12.254;2023-11-19T14:25:14;1.88;;;0.65;;
5787;SDS011;2920;48.158;12.254;2023-11-19T14:27:40;0.95;;;0.60;;
5787;SDS011;2920;48.158;12.254;2023-11-19T14:30:07;0.22;;;0.22;;
5787;SDS011;2920;48.158;12.254;2023-11-19T14:32:36;0.95;;;0.52;;
5787;SDS011;2920;48.158;12.254;2023-11-19T14:35:01;0.63;;;0.45;;
5787;SDS011;2920;48.158;12.254;2023-11-19T14:37:28;0.93;;;0.63;;
5787;SDS011;2920;48.158;12.254;2023-11-19T14:39:54;0.30;;;0.30;;
5787;SDS011;2920;48.158;12.254;2023-11-19T14:42:19;0.73;;;0.52;;
5787;SDS011;2920;48.158;12.254;2023-11-19T14:44:44;0.52;;;0.45;;
5787;SDS011;2920;48.158;12.254;2023-11-19T14:47:10;0.50;;;0.20;;
5787;SDS011;2920;48.158;12.254;2023-11-19T14:49:35;0.98;;;0.43;;
5787;SDS011;2920;48.158;12.254;2023-11-19T14:52:01;1.42;;;0.50;;
5787;SDS011;2920;48.158;12.254;2023-11-19T14:54:28;0.88;;;0.40;;
5787;SDS011;2920;48.158;12.254;2023-11-19T14:56:53;0.98;;;0.45;;
5787;SDS011;2920;48.158;12.254;2023-11-19T14:59:18;0.82;;;0.57;;
5787;SDS011;2920;48.158;12.254;2023-11-19T15:01:47;0.93;;;0.73;;
5787;SDS011;2920;48.158;12.254;2023-11-19T15:04:12;1.15;;;0.80;;
5787;SDS011;2920;48.158;12.254;2023-11-19T15:06:38;0.88;;;0.88;;
5787;SDS011;2920;48.158;12.254;2023-11-19T15:09:03;1.40;;;1.20;;
5787;SDS011;2920;48.158;12.254;2023-11-19T15:11:29;2.08;;;0.88;;
5787;SDS011;2920;48.158;12.254;2023-11-19T15:13:54;1.10;;;0.70;;
5787;SDS011;2920;48.158;12.254;2023-11-19T15:16:20;0.60;;;0.60;;
5787;SDS011;2920;48.158;12.254;2023-11-19T15:18:51;0.50;;;0.50;;
5787;SDS011;2920;48.158;12.254;2023-11-19T15:21:17;1.10;;;0.98;;
5787;SDS011;2920;48.158;12.254;2023-11-19T15:23:42;2.38;;;1.17;;
5787;SDS011;2920;48.158;12.254;2023-11-19T15:26:08;2.17;;;1.60;;
5787;SDS011;2920;48.158;12.254;2023-11-19T15:28:35;1.35;;;0.80;;